Time;durP1;ratioP1;P1;durP2;ratioP2;P2;SDS_P1;SDS_P2;PMS_P1;PMS_P2;Temp;Humidity;BMP_temperature;BMP_pressure;BME280_temperature;BME280_humidity;BME280_pressure;Samples;Min_cycle;Max_cycle;Signal;HPM_P1;HPM_P2
2022/03/14 00:01:21;;;;;;;15.17;13.60;;;;;;;;;;5059748;28;20469;-81
2022/03/14 00:03:50;;;;;;;17.90;14.97;;;;;;;;;;5061639;28;20472;-81
2022/03/14 00:06:17;;;;;;;17.87;13.73;;;;;;;;;;5061088;28;20465;-81
2022/03/14 00:08:45;;;;;;;16.40;13.90;;;;;;;;;;5062274;28;20509;-80
2022/03/14 00:11:14;;;;;;;15.73;14.10;;;;;;;;;;5062323;28;20458;-82
2022/03/14 00:13:43;;;;;;;16.23;13.97;;;;;;;;;;5062834;28;20466;-80
2022/03/14 00:16:10;;;;;;;17.53;15.10;;;;;;;;;;5062063;28;20541;-82
2022/03/14 00:18:40;;;;;;;15.00;13.50;;;;;;;;;;5063709;28;20496;-81
2022/03/14 00:21:10;;;;;;;15.70;14.00;;;;;;;;;;5064327;28;20522;-80
2022/03/14 00:23:38;;;;;;;16.60;14.70;;;;;;;;;;5062286;28;20474;-80
2022/03/14 00:26:06;;;;;;;16.50;14.47;;;;;;;;;;5062155;28;20438;-80
2022/03/14 00:28:33;;;;;;;17.23;14.17;;;;;;;;;;5061629;28;20445;-80
2022/03/14 00:31:00;;;;;;;16.20;14.50;;;;;;;;;;5060937;28;20445;-82
2022/03/14 00:33:27;;;;;;;17.50;13.87;;;;;;;;;;5058844;28;20465;-81
2022/03/14 00:35:56;;;;;;;15.13;13.03;;;;;;;;;;5059055;28;20457;-81
2022/03/14 00:38:25;;;;;;;15.20;13.60;;;;;;;;;;5059482;28;20473;-81
2022/03/14 00:40:52;;;;;;;14.77;13.13;;;;;;;;;;5062499;28;20483;-81
2022/03/14 00:43:19;;;;;;;16.07;12.70;;;;;;;;;;5061146;28;20462;-81
2022/03/14 00:45:47;;;;;;;15.87;13.23;;;;;;;;;;5063364;28;20461;-82
2022/03/14 00:48:14;;;;;;;18.87;14.23;;;;;;;;;;5061755;28;20454;-80
2022/03/14 00:50:42;;;;;;;15.00;13.40;;;;;;;;;;5064634;28;20438;-80
2022/03/14 00:53:10;;;;;;;14.57;13.07;;;;;;;;;;5063105;28;20469;-81
2022/03/14 00:55:38;;;;;;;15.83;13.90;;;;;;;;;;5062260;28;20456;-80
2022/03/14 00:58:05;;;;;;;15.83;14.10;;;;;;;;;;5064723;28;20434;-82
2022/03/14 01:00:32;;;;;;;18.10;15.17;;;;;;;;;;5062337;28;20442;-81
2022/03/14 01:02:59;;;;;;;17.07;14.90;;;;;;;;;;5061055;28;20474;-81
2022/03/14 01:05:26;;;;;;;17.23;14.80;;;;;;;;;;5056765;28;21172;-81
2022/03/14 01:07:54;;;;;;;18.07;15.37;;;;;;;;;;5063050;28;20456;-81
2022/03/14 01:10:23;;;;;;;17.40;14.50;;;;;;;;;;5063614;28;20453;-81
2022/03/14 01:12:50;;;;;;;15.53;13.67;;;;;;;;;;5062948;28;20465;-81
2022/03/14 01:15:18;;;;;;;15.43;13.83;;;;;;;;;;5064827;28;20434;-80
2022/03/14 01:17:45;;;;;;;16.77;13.83;;;;;;;;;;5063787;28;20795;-81
2022/03/14 01:20:12;;;;;;;17.87;14.57;;;;;;;;;;5059830;28;21004;-81
2022/03/14 01:22:39;;;;;;;21.40;18.13;;;;;;;;;;5062382;28;20477;-81
2022/03/14 01:25:07;;;;;;;21.73;17.80;;;;;;;;;;5061975;28;20436;-81
2022/03/14 01:27:36;;;;;;;18.80;16.77;;;;;;;;;;5061292;28;20445;-80
2022/03/14 01:30:03;;;;;;;21.73;18.40;;;;;;;;;;5061167;28;20933;-81
2022/03/14 01:32:30;;;;;;;23.23;18.50;;;;;;;;;;5060236;28;20476;-82
2022/03/14 01:34:57;;;;;;;21.10;18.33;;;;;;;;;;5060230;28;20449;-81
2022/03/14 01:37:24;;;;;;;20.50;18.37;;;;;;;;;;5060778;28;20450;-80
2022/03/14 01:39:51;;;;;;;21.60;19.30;;;;;;;;;;5060846;28;20489;-81
2022/03/14 01:42:18;;;;;;;23.23;19.40;;;;;;;;;;5063103;28;20462;-81
2022/03/14 01:44:47;;;;;;;22.87;18.33;;;;;;;;;;5061807;28;20471;-80
2022/03/14 01:47:15;;;;;;;21.07;18.87;;;;;;;;;;5062312;28;20817;-80
2022/03/14 01:49:42;;;;;;;21.23;18.73;;;;;;;;;;5060854;28;20445;-81
2022/03/14 01:52:09;;;;;;;20.20;17.73;;;;;;;;;;5060769;28;20481;-80
2022/03/14 01:54:36;;;;;;;21.37;19.07;;;;;;;;;;5059980;28;20449;-81
2022/03/14 01:57:04;;;;;;;20.13;17.13;;;;;;;;;;5062164;28;20456;-80
2022/03/14 01:59:31;;;;;;;21.50;19.20;;;;;;;;;;5061509;28;20533;-80
2022/03/14 02:01:59;;;;;;;21.40;18.23;;;;;;;;;;5062052;28;20469;-80
2022/03/14 02:04:26;;;;;;;20.40;17.83;;;;;;;;;;5062092;28;20919;-80
2022/03/14 02:06:54;;;;;;;18.37;16.47;;;;;;;;;;5063723;28;20889;-80
2022/03/14 02:09:21;;;;;;;20.17;18.00;;;;;;;;;;5061857;28;20429;-80
2022/03/14 02:11:52;;;;;;;18.93;16.47;;;;;;;;;;5062573;28;20473;-80
2022/03/14 02:14:20;;;;;;;20.13;17.63;;;;;;;;;;5062923;28;20504;-79
2022/03/14 02:16:47;;;;;;;19.13;17.13;;;;;;;;;;5064783;28;20426;-81
2022/03/14 02:19:15;;;;;;;19.57;17.43;;;;;;;;;;5061727;28;20489;-81
2022/03/14 02:21:44;;;;;;;21.60;18.23;;;;;;;;;;5063962;28;20491;-80
2022/03/14 02:24:11;;;;;;;19.50;17.07;;;;;;;;;;5062917;28;20448;-81
2022/03/14 02:26:39;;;;;;;19.30;17.33;;;;;;;;;;5062408;28;20548;-81
2022/03/14 02:29:06;;;;;;;19.97;17.83;;;;;;;;;;5066141;28;20460;-81
2022/03/14 02:31:36;;;;;;;20.60;18.50;;;;;;;;;;5063775;28;20449;-80
2022/03/14 02:34:03;;;;;;;19.73;17.70;;;;;;;;;;5062702;28;20429;-80
2022/03/14 02:36:30;;;;;;;19.60;17.43;;;;;;;;;;5065378;28;20426;-81
2022/03/14 02:38:59;;;;;;;19.93;17.87;;;;;;;;;;5062746;28;20975;-80
2022/03/14 02:41:26;;;;;;;21.40;19.13;;;;;;;;;;5065321;28;20798;-80
2022/03/14 02:43:54;;;;;;;20.93;18.80;;;;;;;;;;5063802;28;20445;-81
2022/03/14 02:46:21;;;;;;;21.53;19.23;;;;;;;;;;5065416;28;20468;-80
2022/03/14 02:48:48;;;;;;;20.20;18.10;;;;;;;;;;5064954;28;20482;-81
2022/03/14 02:51:15;;;;;;;21.67;19.37;;;;;;;;;;5064205;28;20450;-80
2022/03/14 02:53:42;;;;;;;20.73;18.67;;;;;;;;;;5064927;28;20915;-80
2022/03/14 02:56:10;;;;;;;21.37;19.07;;;;;;;;;;5064794;28;20437;-82
2022/03/14 02:58:39;;;;;;;19.83;17.83;;;;;;;;;;5064306;28;20464;-80
2022/03/14 03:01:06;;;;;;;21.43;19.20;;;;;;;;;;5065519;28;20517;-81
2022/03/14 03:03:34;;;;;;;19.73;17.63;;;;;;;;;;5065813;28;20471;-81
2022/03/14 03:06:01;;;;;;;22.17;19.80;;;;;;;;;;5066512;28;20777;-80
2022/03/14 03:08:28;;;;;;;22.23;20.00;;;;;;;;;;5067129;28;21015;-81
2022/03/14 03:10:59;;;;;;;24.07;19.60;;;;;;;;;;5066103;28;20433;-81
2022/03/14 03:13:28;;;;;;;22.13;19.73;;;;;;;;;;5064190;28;20519;-79
2022/03/14 03:15:55;;;;;;;24.00;19.77;;;;;;;;;;5065126;28;20441;-80
2022/03/14 03:18:24;;;;;;;21.43;19.13;;;;;;;;;;5065981;28;20433;-80
2022/03/14 03:20:51;;;;;;;22.30;20.00;;;;;;;;;;5061920;28;20557;-79
2022/03/14 03:23:19;;;;;;;20.40;18.30;;;;;;;;;;5062901;28;20453;-80
2022/03/14 03:25:46;;;;;;;19.73;17.77;;;;;;;;;;5062616;28;20442;-80
2022/03/14 03:28:13;;;;;;;19.10;17.10;;;;;;;;;;5057248;28;20437;-80
2022/03/14 03:30:41;;;;;;;17.63;15.37;;;;;;;;;;5057743;28;20453;-80
2022/03/14 03:33:08;;;;;;;16.33;14.73;;;;;;;;;;5057557;28;20811;-80
2022/03/14 03:35:35;;;;;;;15.73;14.00;;;;;;;;;;5057189;28;20450;-81
2022/03/14 03:38:03;;;;;;;16.90;15.30;;;;;;;;;;5055759;28;20438;-79
2022/03/14 03:40:30;;;;;;;17.67;15.87;;;;;;;;;;5056260;28;20889;-80
2022/03/14 03:42:57;;;;;;;17.57;15.50;;;;;;;;;;5059563;28;20461;-79
2022/03/14 03:45:25;;;;;;;19.17;17.07;;;;;;;;;;5062187;28;20450;-80
2022/03/14 03:47:54;;;;;;;21.23;19.10;;;;;;;;;;5064076;28;20525;-80
2022/03/14 03:50:21;;;;;;;21.17;18.97;;;;;;;;;;5058036;28;20448;-79
2022/03/14 03:52:48;;;;;;;20.10;17.97;;;;;;;;;;5057216;28;20457;-79
2022/03/14 03:55:15;;;;;;;19.87;17.87;;;;;;;;;;5056741;28;20441;-80
2022/03/14 03:57:42;;;;;;;23.60;18.80;;;;;;;;;;5055163;28;20499;-79
2022/03/14 04:00:12;;;;;;;21.43;17.40;;;;;;;;;;5058946;28;21000;-79
2022/03/14 04:02:41;;;;;;;17.37;14.00;;;;;;;;;;5058298;28;20466;-79
2022/03/14 04:05:10;;;;;;;13.73;12.33;;;;;;;;;;5057885;28;20449;-80
2022/03/14 04:07:40;;;;;;;14.33;12.00;;;;;;;;;;5057323;28;20446;-80
2022/03/14 04:10:11;;;;;;;13.20;11.87;;;;;;;;;;5055850;28;20764;-80
2022/03/14 04:12:39;;;;;;;13.50;12.10;;;;;;;;;;5056369;28;20487;-80
2022/03/14 04:15:09;;;;;;;13.43;12.07;;;;;;;;;;5055398;28;20453;-79
2022/03/14 04:17:37;;;;;;;12.30;11.17;;;;;;;;;;5055009;28;20458;-79
2022/03/14 04:20:04;;;;;;;14.67;12.10;;;;;;;;;;5056640;28;20577;-79
2022/03/14 04:22:33;;;;;;;10.97;9.73;;;;;;;;;;5058290;28;20473;-79
2022/03/14 04:25:00;;;;;;;7.50;6.80;;;;;;;;;;5055637;28;20938;-79
2022/03/14 04:27:27;;;;;;;6.00;5.47;;;;;;;;;;5058707;28;20448;-80
2022/03/14 04:29:54;;;;;;;5.07;4.67;;;;;;;;;;5056059;28;20472;-80
2022/03/14 04:32:23;;;;;;;5.17;4.70;;;;;;;;;;5058182;28;20477;-80
2022/03/14 04:34:50;;;;;;;4.70;4.30;;;;;;;;;;5059278;28;21182;-79
2022/03/14 04:37:17;;;;;;;5.00;4.60;;;;;;;;;;5062327;28;20430;-79
2022/03/14 04:39:45;;;;;;;5.10;4.70;;;;;;;;;;5058985;28;20491;-79
2022/03/14 04:42:17;;;;;;;5.83;5.27;;;;;;;;;;5060417;28;20477;-80
2022/03/14 04:44:45;;;;;;;6.40;5.90;;;;;;;;;;5057652;28;20477;-80
2022/03/14 04:47:12;;;;;;;7.50;6.37;;;;;;;;;;5057157;28;20446;-79
2022/03/14 04:49:39;;;;;;;6.63;6.10;;;;;;;;;;5058702;28;20445;-79
2022/03/14 04:52:06;;;;;;;7.07;6.37;;;;;;;;;;5058227;28;20462;-79
2022/03/14 04:54:33;;;;;;;6.60;5.90;;;;;;;;;;5057573;28;20452;-81
2022/03/14 04:57:01;;;;;;;8.63;7.67;;;;;;;;;;5057400;28;20445;-79
2022/03/14 04:59:28;;;;;;;7.60;6.83;;;;;;;;;;5055404;28;20449;-79
2022/03/14 05:01:55;;;;;;;6.30;5.80;;;;;;;;;;5061613;28;20500;-80
2022/03/14 05:04:23;;;;;;;5.97;5.47;;;;;;;;;;5065458;28;21807;-79
2022/03/14 05:06:50;;;;;;;5.80;5.30;;;;;;;;;;5066343;28;20440;-81
2022/03/14 05:09:17;;;;;;;5.43;5.03;;;;;;;;;;5059632;28;20453;-80
2022/03/14 05:11:44;;;;;;;5.70;5.30;;;;;;;;;;5056609;28;20430;-80
2022/03/14 05:14:13;;;;;;;4.90;4.50;;;;;;;;;;5063711;28;20434;-79
2022/03/14 05:16:40;;;;;;;4.70;4.30;;;;;;;;;;5057776;28;20449;-80
2022/03/14 05:19:07;;;;;;;5.47;4.67;;;;;;;;;;5058683;28;20798;-79
2022/03/14 05:21:34;;;;;;;4.90;4.50;;;;;;;;;;5052593;28;20477;-79
2022/03/14 05:24:01;;;;;;;5.17;4.67;;;;;;;;;;5038362;28;20450;-81
2022/03/14 05:26:28;;;;;;;4.40;4.10;;;;;;;;;;5060182;28;20445;-80
2022/03/14 05:28:55;;;;;;;4.50;4.13;;;;;;;;;;5066290;28;20440;-80
2022/03/14 05:31:24;;;;;;;4.67;4.27;;;;;;;;;;5056415;28;20445;-79
2022/03/14 05:33:51;;;;;;;3.70;3.50;;;;;;;;;;5058186;28;20483;-80
2022/03/14 05:36:18;;;;;;;2.87;2.67;;;;;;;;;;5057555;28;20430;-81
2022/03/14 05:38:45;;;;;;;3.87;2.90;;;;;;;;;;5057556;28;20533;-79
2022/03/14 05:41:12;;;;;;;2.97;2.83;;;;;;;;;;5056784;28;20492;-80
2022/03/14 05:43:39;;;;;;;1.80;1.70;;;;;;;;;;5056606;28;20469;-80
2022/03/14 05:46:07;;;;;;;2.10;2.00;;;;;;;;;;5057602;28;20434;-81
2022/03/14 05:48:36;;;;;;;1.77;1.67;;;;;;;;;;5055577;28;20557;-81
2022/03/14 05:51:03;;;;;;;2.00;1.90;;;;;;;;;;5055057;28;20445;-80
2022/03/14 05:53:31;;;;;;;2.00;1.80;;;;;;;;;;5056009;28;20543;-81
2022/03/14 05:55:58;;;;;;;1.33;1.30;;;;;;;;;;5056942;28;20468;-80
2022/03/14 05:58:25;;;;;;;2.30;1.80;;;;;;;;;;5055635;28;20802;-79
2022/03/14 06:00:53;;;;;;;1.90;1.80;;;;;;;;;;5055311;28;20477;-80
2022/03/14 06:03:20;;;;;;;1.70;1.60;;;;;;;;;;5058577;28;20533;-81
2022/03/14 06:05:49;;;;;;;1.50;1.40;;;;;;;;;;5058936;28;20469;-80
2022/03/14 06:08:17;;;;;;;3.77;1.70;;;;;;;;;;5058977;28;20929;-80
2022/03/14 06:10:46;;;;;;;1.50;1.40;;;;;;;;;;5061075;28;20445;-79
2022/03/14 06:13:13;;;;;;;1.70;1.60;;;;;;;;;;5059041;28;20926;-79
2022/03/14 06:15:40;;;;;;;1.50;1.40;;;;;;;;;;5054938;28;20552;-80
2022/03/14 06:18:07;;;;;;;1.50;1.13;;;;;;;;;;5054861;28;20438;-81
2022/03/14 06:20:35;;;;;;;2.50;1.80;;;;;;;;;;5058364;28;20812;-81
2022/03/14 06:23:03;;;;;;;1.50;1.43;;;;;;;;;;5053999;28;20505;-81
2022/03/14 06:25:31;;;;;;;1.17;1.10;;;;;;;;;;5056654;28;20457;-83
2022/03/14 06:28:00;;;;;;;1.70;1.40;;;;;;;;;;5048424;28;20457;-80
2022/03/14 06:30:37;;;;;;;1.43;1.33;;;;;;;;;;5046717;28;20777;-81
2022/03/14 06:33:05;;;;;;;2.17;1.30;;;;;;;;;;5033610;28;20470;-81
2022/03/14 06:35:32;;;;;;;1.73;1.60;;;;;;;;;;5033316;28;20457;-79
2022/03/14 06:38:02;;;;;;;1.43;1.40;;;;;;;;;;5034290;28;20484;-79
2022/03/14 06:40:31;;;;;;;1.90;1.70;;;;;;;;;;5041345;28;20475;-80
2022/03/14 06:42:59;;;;;;;1.40;1.30;;;;;;;;;;5055173;28;20537;-80
2022/03/14 06:45:26;;;;;;;2.10;1.43;;;;;;;;;;5054652;28;20449;-80
2022/03/14 06:47:54;;;;;;;1.57;1.10;;;;;;;;;;5054408;28;20448;-81
2022/03/14 06:50:22;;;;;;;2.67;1.80;;;;;;;;;;5053407;28;20461;-79
2022/03/14 06:52:49;;;;;;;1.77;1.67;;;;;;;;;;5040945;28;20467;-80
2022/03/14 06:55:22;;;;;;;2.30;1.63;;;;;;;;;;5036635;28;20445;-80
2022/03/14 06:57:50;;;;;;;2.60;1.10;;;;;;;;;;5036345;28;20441;-80
2022/03/14 07:00:18;;;;;;;1.43;1.33;;;;;;;;;;5035663;28;20561;-80
2022/03/14 07:02:45;;;;;;;1.20;1.20;;;;;;;;;;5035418;28;20500;-81
2022/03/14 07:05:17;;;;;;;2.07;1.53;;;;;;;;;;5034690;28;20464;-80
2022/03/14 07:07:44;;;;;;;2.00;1.53;;;;;;;;;;5034852;28;20431;-80
2022/03/14 07:10:12;;;;;;;1.57;1.50;;;;;;;;;;5034189;28;20454;-80
2022/03/14 07:12:45;;;;;;;2.10;1.50;;;;;;;;;;5037422;28;20485;-80
2022/03/14 07:15:16;;;;;;;1.20;1.20;;;;;;;;;;5037888;28;20439;-82
2022/03/14 07:17:43;;;;;;;1.40;1.30;;;;;;;;;;5037398;28;20442;-81
2022/03/14 07:20:11;;;;;;;1.60;1.50;;;;;;;;;;5036850;28;20461;-81
2022/03/14 07:22:49;;;;;;;1.90;1.40;;;;;;;;;;5037185;28;20462;-81
2022/03/14 07:25:19;;;;;;;3.17;1.33;;;;;;;;;;5035946;28;20847;-80
2022/03/14 07:27:46;;;;;;;1.57;1.47;;;;;;;;;;5059581;28;20417;-79
2022/03/14 07:30:15;;;;;;;1.57;1.37;;;;;;;;;;5076582;28;21037;-79
2022/03/14 07:32:42;;;;;;;1.70;1.60;;;;;;;;;;5075772;28;20500;-80
2022/03/14 07:35:10;;;;;;;1.30;1.20;;;;;;;;;;5070964;28;20453;-81
2022/03/14 07:37:37;;;;;;;1.53;1.43;;;;;;;;;;5070213;28;20437;-81
2022/03/14 07:40:05;;;;;;;1.27;1.17;;;;;;;;;;5083239;28;20537;-80
2022/03/14 07:42:33;;;;;;;2.23;1.13;;;;;;;;;;5083919;28;20876;-80
2022/03/14 07:45:00;;;;;;;1.80;1.30;;;;;;;;;;5082189;28;20810;-79
2022/03/14 07:47:32;;;;;;;1.57;1.47;;;;;;;;;;5080582;28;20436;-81
2022/03/14 07:49:59;;;;;;;2.03;1.30;;;;;;;;;;5071446;28;20471;-80
2022/03/14 07:52:26;;;;;;;1.80;1.70;;;;;;;;;;5057318;28;20466;-80
2022/03/14 07:54:53;;;;;;;1.80;1.33;;;;;;;;;;5056435;28;20521;-80
2022/03/14 07:57:20;;;;;;;2.97;1.17;;;;;;;;;;5057654;28;20445;-81
2022/03/14 07:59:48;;;;;;;2.63;1.27;;;;;;;;;;5058335;28;20434;-81
2022/03/14 08:02:15;;;;;;;1.30;1.20;;;;;;;;;;5057889;28;20556;-80
2022/03/14 08:04:43;;;;;;;1.87;1.23;;;;;;;;;;5057799;28;20453;-81
2022/03/14 08:07:10;;;;;;;2.13;1.33;;;;;;;;;;5057612;28;20848;-82
2022/03/14 08:09:37;;;;;;;2.17;1.40;;;;;;;;;;5057150;28;20929;-80
2022/03/14 08:12:05;;;;;;;1.70;1.43;;;;;;;;;;5036675;28;20462;-80
2022/03/14 08:14:32;;;;;;;3.10;1.90;;;;;;;;;;5039388;28;20497;-82
2022/03/14 08:16:59;;;;;;;1.37;1.27;;;;;;;;;;5076421;28;20792;-80
2022/03/14 08:19:27;;;;;;;2.40;1.20;;;;;;;;;;5077892;28;20490;-83
2022/03/14 08:21:57;;;;;;;1.47;1.37;;;;;;;;;;5075535;28;20485;-81
2022/03/14 08:24:24;;;;;;;3.10;1.53;;;;;;;;;;5077974;28;20512;-82
2022/03/14 08:26:51;;;;;;;1.13;1.00;;;;;;;;;;5077545;28;20498;-82
2022/03/14 08:29:18;;;;;;;2.63;1.40;;;;;;;;;;5077348;28;20432;-82
2022/03/14 08:31:45;;;;;;;1.27;1.10;;;;;;;;;;5077846;28;20437;-80
2022/03/14 08:34:12;;;;;;;2.93;1.37;;;;;;;;;;5078273;28;20444;-81
2022/03/14 08:36:40;;;;;;;3.70;1.20;;;;;;;;;;5078394;28;20452;-81
2022/03/14 08:39:09;;;;;;;2.97;1.73;;;;;;;;;;5079323;28;20836;-82
2022/03/14 08:41:37;;;;;;;2.33;1.60;;;;;;;;;;5077308;28;20480;-82
2022/03/14 08:44:04;;;;;;;1.40;1.30;;;;;;;;;;5075858;28;20495;-81
2022/03/14 08:46:31;;;;;;;3.67;1.50;;;;;;;;;;5076378;28;20461;-82
2022/03/14 08:48:58;;;;;;;2.20;1.30;;;;;;;;;;5076694;28;20448;-81
2022/03/14 08:51:26;;;;;;;1.80;1.13;;;;;;;;;;5077028;28;20551;-82
2022/03/14 08:53:53;;;;;;;1.80;1.50;;;;;;;;;;5077708;28;20461;-80
2022/03/14 08:56:22;;;;;;;1.57;1.20;;;;;;;;;;5078070;28;20471;-81
2022/03/14 08:58:49;;;;;;;3.37;1.30;;;;;;;;;;5078218;28;20506;-81
2022/03/14 09:01:16;;;;;;;2.30;0.93;;;;;;;;;;5077387;28;20504;-82
2022/03/14 09:03:43;;;;;;;2.73;1.60;;;;;;;;;;5077253;28;20476;-82
2022/03/14 09:06:10;;;;;;;1.40;1.20;;;;;;;;;;5075827;28;20527;-81
2022/03/14 09:08:39;;;;;;;2.83;1.57;;;;;;;;;;5075555;28;20455;-81
2022/03/14 09:11:06;;;;;;;7.00;2.07;;;;;;;;;;5075675;28;20448;-80
2022/03/14 09:13:34;;;;;;;5.60;1.60;;;;;;;;;;5075132;28;20465;-80
2022/03/14 09:16:01;;;;;;;5.10;1.60;;;;;;;;;;5076988;28;20440;-82
2022/03/14 09:18:31;;;;;;;5.77;1.60;;;;;;;;;;5076080;28;20444;-82
2022/03/14 09:20:58;;;;;;;2.83;1.37;;;;;;;;;;5075906;28;20516;-81
2022/03/14 09:23:25;;;;;;;3.13;1.43;;;;;;;;;;5076391;28;20469;-82
2022/03/14 09:25:52;;;;;;;6.83;1.30;;;;;;;;;;5075181;28;20896;-81
2022/03/14 09:28:21;;;;;;;7.17;1.50;;;;;;;;;;5076056;28;20505;-83
2022/03/14 09:30:49;;;;;;;1.70;1.10;;;;;;;;;;5076104;28;20467;-81
2022/03/14 09:33:16;;;;;;;4.30;1.50;;;;;;;;;;5075664;28;20526;-81
2022/03/14 09:35:43;;;;;;;2.10;1.23;;;;;;;;;;5075160;28;20455;-81
2022/03/14 09:38:13;;;;;;;4.50;1.40;;;;;;;;;;5074755;28;20445;-82
2022/03/14 09:40:40;;;;;;;2.40;1.70;;;;;;;;;;5075150;28;20967;-82
2022/03/14 09:43:08;;;;;;;4.10;1.87;;;;;;;;;;5074448;28;20460;-81
2022/03/14 09:45:37;;;;;;;3.80;1.40;;;;;;;;;;5074971;28;20431;-82
2022/03/14 09:48:05;;;;;;;2.73;1.40;;;;;;;;;;5074346;28;20548;-81
2022/03/14 09:50:33;;;;;;;1.90;1.20;;;;;;;;;;5074891;28;20445;-81
2022/03/14 09:53:01;;;;;;;1.20;1.10;;;;;;;;;;5074739;28;20464;-81
2022/03/14 09:55:28;;;;;;;3.03;1.60;;;;;;;;;;5074298;28;20441;-82
2022/03/14 09:57:56;;;;;;;1.87;1.17;;;;;;;;;;5074110;28;20527;-81
2022/03/14 10:00:23;;;;;;;2.67;1.60;;;;;;;;;;5073998;28;20421;-82
2022/03/14 10:02:50;;;;;;;1.50;1.40;;;;;;;;;;5073556;28;20511;-82
2022/03/14 10:05:19;;;;;;;2.90;2.30;;;;;;;;;;5064789;28;20450;-81
2022/03/14 10:07:46;;;;;;;3.43;1.57;;;;;;;;;;5055122;28;20465;-82
2022/03/14 10:10:14;;;;;;;1.43;1.30;;;;;;;;;;5054353;28;20450;-82
2022/03/14 10:12:41;;;;;;;3.53;1.73;;;;;;;;;;5054328;28;21000;-82
2022/03/14 10:15:10;;;;;;;2.67;1.40;;;;;;;;;;5054283;28;20645;-82
2022/03/14 10:17:37;;;;;;;2.33;1.10;;;;;;;;;;5054080;28;20430;-82
2022/03/14 10:20:06;;;;;;;1.43;1.33;;;;;;;;;;5054338;28;20446;-82
2022/03/14 10:22:36;;;;;;;2.90;1.70;;;;;;;;;;5053934;28;21026;-82
2022/03/14 10:25:04;;;;;;;1.83;1.23;;;;;;;;;;5054535;28;20437;-81
2022/03/14 10:27:34;;;;;;;3.73;1.60;;;;;;;;;;5053989;28;20446;-82
2022/03/14 10:30:01;;;;;;;2.93;1.70;;;;;;;;;;5054255;28;20687;-81
2022/03/14 10:32:36;;;;;;;3.47;1.43;;;;;;;;;;5053573;28;20462;-81
2022/03/14 10:35:05;;;;;;;2.00;1.17;;;;;;;;;;5055038;28;20513;-80
2022/03/14 10:37:32;;;;;;;1.57;1.27;;;;;;;;;;5054451;28;20437;-81
2022/03/14 10:40:02;;;;;;;2.30;1.33;;;;;;;;;;5054168;28;20893;-81
2022/03/14 10:42:29;;;;;;;2.50;1.10;;;;;;;;;;5054166;28;20500;-83
2022/03/14 10:44:56;;;;;;;1.33;1.17;;;;;;;;;;5054677;28;20446;-80
2022/03/14 10:47:27;;;;;;;2.50;1.23;;;;;;;;;;5059057;28;20445;-81
2022/03/14 10:49:54;;;;;;;1.40;1.00;;;;;;;;;;5058895;28;20456;-83
2022/03/14 10:52:22;;;;;;;3.20;1.47;;;;;;;;;;5058911;28;20819;-82
2022/03/14 10:54:49;;;;;;;1.90;1.20;;;;;;;;;;5058746;28;20438;-81
2022/03/14 10:57:19;;;;;;;2.33;1.20;;;;;;;;;;5059909;28;21019;-82
2022/03/14 10:59:47;;;;;;;3.47;1.20;;;;;;;;;;5059107;28;20449;-81
2022/03/14 11:02:17;;;;;;;2.20;1.40;;;;;;;;;;5057700;28;20508;-81
2022/03/14 11:04:45;;;;;;;3.43;1.30;;;;;;;;;;5057825;28;20441;-82
2022/03/14 11:07:13;;;;;;;2.63;1.20;;;;;;;;;;5057305;28;20449;-81
2022/03/14 11:09:44;;;;;;;1.43;1.03;;;;;;;;;;5057517;28;20532;-82
2022/03/14 11:12:12;;;;;;;4.00;1.40;;;;;;;;;;5057847;28;20472;-82
2022/03/14 11:14:41;;;;;;;3.90;1.20;;;;;;;;;;5057132;28;20487;-82
2022/03/14 11:17:15;;;;;;;4.77;1.37;;;;;;;;;;5056427;28;20441;-83
2022/03/14 11:19:43;;;;;;;2.50;1.20;;;;;;;;;;5056519;28;20764;-80
2022/03/14 11:22:11;;;;;;;2.87;1.83;;;;;;;;;;5056254;28;20473;-83
2022/03/14 11:24:40;;;;;;;4.13;1.10;;;;;;;;;;5056848;28;20460;-82
2022/03/14 11:27:07;;;;;;;3.37;1.60;;;;;;;;;;5056893;28;20540;-82
2022/03/14 11:29:36;;;;;;;1.40;1.10;;;;;;;;;;5056690;28;20445;-81
2022/03/14 11:32:05;;;;;;;2.97;1.47;;;;;;;;;;5056174;28;20994;-81
2022/03/14 11:34:33;;;;;;;1.20;1.10;;;;;;;;;;5056195;28;20449;-82
2022/03/14 11:37:00;;;;;;;2.10;1.23;;;;;;;;;;5056955;28;20972;-81
2022/03/14 11:39:28;;;;;;;2.83;1.20;;;;;;;;;;5057888;28;20465;-82
2022/03/14 11:41:56;;;;;;;2.77;1.23;;;;;;;;;;5058433;28;20853;-82
2022/03/14 11:44:23;;;;;;;2.73;1.40;;;;;;;;;;5059391;28;20472;-82
2022/03/14 11:46:51;;;;;;;1.73;1.23;;;;;;;;;;5057579;28;20858;-82
2022/03/14 11:49:19;;;;;;;2.67;1.13;;;;;;;;;;5058356;28;20512;-82
2022/03/14 11:51:48;;;;;;;1.60;1.10;;;;;;;;;;5057776;28;20434;-82
2022/03/14 11:54:17;;;;;;;1.33;1.00;;;;;;;;;;5058708;28;20521;-82
2022/03/14 11:57:03;;;;;;;2.30;1.10;;;;;;;;;;5056700;28;20445;-81
2022/03/14 11:59:31;;;;;;;2.70;1.27;;;;;;;;;;5058730;28;20437;-83
2022/03/14 12:02:00;;;;;;;2.20;0.93;;;;;;;;;;5062238;28;20953;-83
2022/03/14 12:04:29;;;;;;;3.70;1.90;;;;;;;;;;5058355;28;20452;-83
2022/03/14 12:07:13;;;;;;;2.57;1.90;;;;;;;;;;5058540;28;20535;-82
2022/03/14 12:09:48;;;;;;;4.33;1.77;;;;;;;;;;5057474;28;20453;-84
2022/03/14 12:12:34;;;;;;;2.87;1.73;;;;;;;;;;5058602;28;20904;-83
2022/03/14 12:15:01;;;;;;;2.80;1.40;;;;;;;;;;5057431;28;20434;-83
2022/03/14 12:17:32;;;;;;;2.97;0.93;;;;;;;;;;5058085;28;20445;-81
2022/03/14 12:20:03;;;;;;;1.30;0.80;;;;;;;;;;5057170;28;20828;-80
2022/03/14 12:22:35;;;;;;;2.17;1.23;;;;;;;;;;5057305;28;20906;-80
2022/03/14 12:25:03;;;;;;;1.93;0.87;;;;;;;;;;5057693;28;20441;-84
2022/03/14 12:27:30;;;;;;;3.60;1.10;;;;;;;;;;5057885;28;20452;-83
2022/03/14 12:29:58;;;;;;;0.87;0.87;;;;;;;;;;5058016;28;20446;-82
2022/03/14 12:32:29;;;;;;;2.13;1.10;;;;;;;;;;5056858;28;20489;-82
2022/03/14 12:34:57;;;;;;;2.33;1.10;;;;;;;;;;5057428;28;20446;-81
2022/03/14 12:37:27;;;;;;;3.53;1.40;;;;;;;;;;5069493;28;20447;-82
2022/03/14 12:39:54;;;;;;;1.07;0.90;;;;;;;;;;5072921;28;20484;-82
2022/03/14 12:42:23;;;;;;;1.37;1.20;;;;;;;;;;5072640;28;20489;-81
2022/03/14 12:45:05;;;;;;;1.00;0.83;;;;;;;;;;5059921;28;20673;-83
2022/03/14 12:47:32;;;;;;;2.03;0.90;;;;;;;;;;5058992;28;20480;-82
2022/03/14 12:49:59;;;;;;;2.10;0.93;;;;;;;;;;5057551;28;20441;-81
2022/03/14 12:52:27;;;;;;;1.13;1.03;;;;;;;;;;5057543;28;20832;-81
2022/03/14 12:54:54;;;;;;;1.37;1.00;;;;;;;;;;5058632;28;20441;-81
2022/03/14 12:57:23;;;;;;;5.80;1.37;;;;;;;;;;5058096;28;20453;-82
2022/03/14 12:59:58;;;;;;;1.47;1.13;;;;;;;;;;5060918;28;20426;-81
2022/03/14 13:02:27;;;;;;;4.70;1.07;;;;;;;;;;5061478;28;20488;-81
2022/03/14 13:04:56;;;;;;;1.80;1.10;;;;;;;;;;5062384;28;20450;-81
2022/03/14 13:07:23;;;;;;;2.27;1.40;;;;;;;;;;5060071;28;20469;-82
2022/03/14 13:09:56;;;;;;;2.10;1.03;;;;;;;;;;5062617;28;20515;-82
2022/03/14 13:12:23;;;;;;;1.73;1.07;;;;;;;;;;5059620;28;20515;-82
2022/03/14 13:14:51;;;;;;;2.07;1.20;;;;;;;;;;5059910;28;20450;-81
2022/03/14 13:17:25;;;;;;;1.57;1.10;;;;;;;;;;5060585;28;20456;-82
2022/03/14 13:19:52;;;;;;;1.20;1.10;;;;;;;;;;5060257;28;20449;-82
2022/03/14 13:22:21;;;;;;;3.17;1.13;;;;;;;;;;5060511;28;20485;-82
2022/03/14 13:24:49;;;;;;;2.43;1.40;;;;;;;;;;5063361;28;20476;-81
2022/03/14 13:27:23;;;;;;;4.97;1.20;;;;;;;;;;5062694;28;20422;-82
2022/03/14 13:29:50;;;;;;;1.47;0.83;;;;;;;;;;5060007;28;20535;-80
2022/03/14 13:32:18;;;;;;;1.30;0.83;;;;;;;;;;5059098;28;20472;-83
2022/03/14 13:34:46;;;;;;;2.57;0.90;;;;;;;;;;5059092;28;20470;-82
2022/03/14 13:37:13;;;;;;;1.47;1.10;;;;;;;;;;5058295;28;20549;-82
2022/03/14 13:39:42;;;;;;;3.30;1.43;;;;;;;;;;5058743;28;20446;-81
2022/03/14 13:42:09;;;;;;;1.63;1.20;;;;;;;;;;5057850;28;20469;-81
2022/03/14 13:44:38;;;;;;;2.27;1.30;;;;;;;;;;5056628;28;20434;-81
2022/03/14 13:47:06;;;;;;;1.70;1.13;;;;;;;;;;5057000;28;20441;-82
2022/03/14 13:49:33;;;;;;;5.50;1.17;;;;;;;;;;5054494;28;20933;-81
2022/03/14 13:52:00;;;;;;;2.40;1.00;;;;;;;;;;5054618;28;20454;-82
2022/03/14 13:54:29;;;;;;;3.00;1.40;;;;;;;;;;5054720;28;20446;-82
2022/03/14 13:56:56;;;;;;;2.30;1.47;;;;;;;;;;5056734;28;20426;-81
2022/03/14 13:59:26;;;;;;;2.00;1.30;;;;;;;;;;5055512;28;20456;-82
2022/03/14 14:01:55;;;;;;;1.43;1.00;;;;;;;;;;5057191;28;20462;-82
2022/03/14 14:04:25;;;;;;;3.23;1.20;;;;;;;;;;5057943;28;20486;-82
2022/03/14 14:06:55;;;;;;;4.00;1.30;;;;;;;;;;5056914;28;20430;-84
2022/03/14 14:09:23;;;;;;;2.97;1.20;;;;;;;;;;5056277;28;20476;-82
2022/03/14 14:11:58;;;;;;;1.23;1.13;;;;;;;;;;5056296;28;20477;-81
2022/03/14 14:14:26;;;;;;;1.70;1.33;;;;;;;;;;5055552;28;20425;-81
2022/03/14 14:16:54;;;;;;;2.30;1.30;;;;;;;;;;5054858;28;20488;-82
2022/03/14 14:19:24;;;;;;;1.33;1.23;;;;;;;;;;5054151;28;20441;-83
2022/03/14 14:21:55;;;;;;;2.10;1.10;;;;;;;;;;5054536;28;20481;-80
2022/03/14 14:24:23;;;;;;;2.40;1.30;;;;;;;;;;5058241;28;20473;-81
2022/03/14 14:26:51;;;;;;;1.20;1.10;;;;;;;;;;5058948;28;20890;-82
2022/03/14 14:29:33;;;;;;;2.40;1.63;;;;;;;;;;5058646;28;20615;-83
2022/03/14 14:32:15;;;;;;;1.70;1.13;;;;;;;;;;5056557;28;20469;-82
2022/03/14 14:34:43;;;;;;;2.67;1.70;;;;;;;;;;5055898;28;20486;-80
2022/03/14 14:37:11;;;;;;;1.77;1.40;;;;;;;;;;5055571;28;20499;-81
2022/03/14 14:39:38;;;;;;;1.53;1.43;;;;;;;;;;5055020;28;20492;-81
2022/03/14 14:42:06;;;;;;;1.87;1.20;;;;;;;;;;5055552;28;20519;-82